createdAt,value
2023-03-10T00:47:37.350Z,979.18
2023-03-10T00:48:36.798Z,979.22
2023-03-10T00:49:36.776Z,979.11
2023-03-10T00:50:36.773Z,979.03
2023-03-10T00:51:36.780Z,979.05
2023-03-10T00:52:36.759Z,979.01
2023-03-10T00:53:36.792Z,979.04
2023-03-10T00:58:56.784Z,978.99
2023-03-10T00:59:49.347Z,978.98
2023-03-10T01:00:36.760Z,978.90
2023-03-10T01:01:36.806Z,978.90
2023-03-10T01:02:36.727Z,978.90
2023-03-10T01:03:57.783Z,978.84
2023-03-10T01:04:36.703Z,978.84
2023-03-10T01:05:36.684Z,978.79
2023-03-10T01:06:36.677Z,978.76
2023-03-10T01:07:36.861Z,978.82
2023-03-10T01:08:39.638Z,978.77
2023-03-10T01:09:36.685Z,978.72
2023-03-10T01:10:57.641Z,978.70
2023-03-10T01:11:36.593Z,978.64
2023-03-10T01:12:57.711Z,978.65
2023-03-10T01:13:36.586Z,978.57
2023-03-10T01:14:36.565Z,978.55
2023-03-10T01:15:36.574Z,978.49
2023-03-10T01:16:36.531Z,978.46
2023-03-10T01:17:36.520Z,978.47
2023-03-10T01:18:36.682Z,978.44
2023-03-10T01:19:36.500Z,978.41
2023-03-10T01:20:36.464Z,978.44
2023-03-10T01:21:39.432Z,978.43
2023-03-10T01:22:36.452Z,978.36
2023-03-10T01:23:36.487Z,978.35
2023-03-10T01:24:36.442Z,978.35
2023-03-10T01:25:36.420Z,978.29
2023-03-10T01:26:36.619Z,978.30
2023-03-10T01:27:36.388Z,978.25
2023-03-10T01:28:36.392Z,978.22
2023-03-10T01:29:36.376Z,978.16
2023-03-10T01:30:36.345Z,978.14
2023-03-10T01:31:36.429Z,978.08
2023-03-10T01:32:36.367Z,978.09
2023-03-10T01:33:36.330Z,978.06
2023-03-10T01:34:36.309Z,978.01
2023-03-10T01:35:36.321Z,977.94
2023-03-10T01:36:36.281Z,977.95
2023-03-10T01:37:36.248Z,977.95
2023-03-10T01:38:36.265Z,977.91
2023-03-10T01:39:36.227Z,977.87
2023-03-10T01:40:36.416Z,977.86
2023-03-10T01:41:36.200Z,977.87
2023-03-10T01:42:36.222Z,977.84
2023-03-10T01:43:36.194Z,977.81
2023-03-10T01:44:36.195Z,977.83
2023-03-10T01:45:36.147Z,977.81
2023-03-10T01:46:36.301Z,977.81
2023-03-10T01:47:36.141Z,977.81
2023-03-10T01:48:36.163Z,977.74
2023-03-10T01:49:36.127Z,977.81
2023-03-10T01:50:36.109Z,977.81
2023-03-10T01:51:36.071Z,977.84
2023-03-10T01:52:36.068Z,977.84
2023-03-10T01:53:36.052Z,977.81
2023-03-10T01:54:36.058Z,977.86
2023-03-10T01:55:36.014Z,977.97
2023-03-10T01:56:36.016Z,977.94
2023-03-10T01:57:35.984Z,977.97
2023-03-10T01:58:36.027Z,977.97
2023-03-10T01:59:35.964Z,978.10
2023-03-10T02:00:36.022Z,978.15
2023-03-10T02:01:35.967Z,978.24
2023-03-10T02:02:35.919Z,978.27
2023-03-10T02:03:35.916Z,978.26
2023-03-10T02:04:35.911Z,978.38
2023-03-10T02:05:35.888Z,978.43
2023-03-10T02:06:35.861Z,978.43
2023-03-10T02:07:35.857Z,978.45
2023-03-10T02:08:35.854Z,978.58
2023-03-10T02:09:35.837Z,978.67
2023-03-10T02:10:38.921Z,978.73
2023-03-10T02:11:35.795Z,978.83
2023-03-10T02:12:35.787Z,978.81
2023-03-10T02:13:35.778Z,978.84
2023-03-10T02:14:35.762Z,978.79
2023-03-10T02:15:35.743Z,978.78
2023-03-10T02:16:35.775Z,978.73
2023-03-10T02:17:35.741Z,978.76
2023-03-10T02:18:35.716Z,978.81
2023-03-10T02:19:35.739Z,978.85
2023-03-10T02:20:35.679Z,978.85
2023-03-10T02:21:35.662Z,978.95
2023-03-10T02:22:35.668Z,978.93
2023-03-10T02:23:35.649Z,978.93
2023-03-10T02:24:35.636Z,978.99
2023-03-10T02:25:35.624Z,978.96
2023-03-10T02:26:35.614Z,978.98
2023-03-10T02:27:35.595Z,978.98
2023-03-10T02:28:35.594Z,979.02
2023-03-10T02:29:38.445Z,979.02
2023-03-10T02:30:35.566Z,979.02
2023-03-10T02:31:35.610Z,978.99
2023-03-10T02:32:35.576Z,978.99
2023-03-10T02:33:35.560Z,978.98
2023-03-10T02:34:35.498Z,978.97
2023-03-10T02:35:35.555Z,978.92
2023-03-10T02:36:35.482Z,978.98
2023-03-10T02:37:35.464Z,978.98
2023-03-10T02:38:35.483Z,979.01
2023-03-10T02:39:35.430Z,979.01
2023-03-10T02:40:35.424Z,979.03
2023-03-10T02:41:35.410Z,979.05
2023-03-10T02:42:35.438Z,979.04
2023-03-10T02:43:35.366Z,979.01
2023-03-10T02:44:35.416Z,979.07
2023-03-10T02:45:35.448Z,979.12
2023-03-10T02:46:35.381Z,979.09
2023-03-10T02:47:35.318Z,979.15
2023-03-10T02:48:35.348Z,979.20
2023-03-10T02:49:35.302Z,979.18
2023-03-10T02:50:35.293Z,979.14
2023-03-10T02:51:35.299Z,979.17
2023-03-10T02:52:35.262Z,979.14
2023-03-10T02:53:35.284Z,979.20
2023-03-10T02:54:35.240Z,979.18
2023-03-10T02:55:35.234Z,979.17
2023-03-10T02:56:35.250Z,979.15
2023-03-10T02:57:35.191Z,979.18
2023-03-10T02:58:35.177Z,979.16
2023-03-10T02:59:35.231Z,979.19
2023-03-10T03:00:35.162Z,979.16
2023-03-10T03:01:35.247Z,979.16
2023-03-10T03:02:35.121Z,979.19
2023-03-10T03:03:35.137Z,979.19
2023-03-10T03:04:35.100Z,979.20
2023-03-10T03:05:35.077Z,979.20
2023-03-10T03:06:35.068Z,979.13
2023-03-10T03:07:35.058Z,979.10
2023-03-10T03:08:35.042Z,979.12
2023-03-10T03:09:35.023Z,979.09
2023-03-10T03:10:35.012Z,979.06
2023-03-10T03:11:34.990Z,979.08
2023-03-10T03:12:34.989Z,979.09
2023-03-10T03:13:34.973Z,979.10
2023-03-10T03:14:34.972Z,979.08
2023-03-10T03:15:34.946Z,979.10
2023-03-10T03:16:34.975Z,979.10
2023-03-10T03:17:34.929Z,979.11
2023-03-10T03:18:34.909Z,979.11
2023-03-10T03:19:34.900Z,979.18
2023-03-10T03:20:34.883Z,979.14
2023-03-10T03:21:34.861Z,979.17
2023-03-10T03:22:34.855Z,979.14
2023-03-10T03:23:34.848Z,979.17
2023-03-10T03:24:34.838Z,979.19
2023-03-10T03:25:34.893Z,979.20
2023-03-10T03:26:34.804Z,979.21
2023-03-10T03:27:34.790Z,979.19
2023-03-10T03:28:34.791Z,979.16
2023-03-10T03:29:34.770Z,979.18
2023-03-10T03:30:34.748Z,979.16
2023-03-10T03:31:34.794Z,979.14
2023-03-10T03:32:34.786Z,979.09
2023-03-10T03:33:34.707Z,979.10
2023-03-10T03:34:34.714Z,979.11
2023-03-10T03:35:34.746Z,979.10
2023-03-10T03:36:34.689Z,979.10
2023-03-10T03:37:34.658Z,979.05
2023-03-10T03:38:34.661Z,979.09
2023-03-10T03:39:34.732Z,979.00
2023-03-10T03:40:34.683Z,979.04
2023-03-10T03:41:34.607Z,979.07
2023-03-10T03:42:34.688Z,979.06
2023-03-10T03:43:34.635Z,978.96
2023-03-10T03:44:34.627Z,979.03
2023-03-10T03:45:34.547Z,978.99
2023-03-10T03:46:34.642Z,978.95
2023-03-10T03:47:34.533Z,979.01
2023-03-10T03:48:34.558Z,978.97
2023-03-10T03:49:34.542Z,979.00
2023-03-10T03:50:34.536Z,979.01
2023-03-10T03:51:34.490Z,978.98
2023-03-10T03:52:34.482Z,978.97
2023-03-10T03:53:34.440Z,979.01
2023-03-10T03:54:34.475Z,979.02
2023-03-10T03:55:34.423Z,978.96
2023-03-10T03:56:34.427Z,979.01
2023-03-10T03:57:34.393Z,979.03
2023-03-10T03:58:34.399Z,979.07
2023-03-10T03:59:34.388Z,979.07
2023-03-10T04:00:34.367Z,979.04
2023-03-10T04:01:34.349Z,979.07
2023-03-10T04:02:34.417Z,979.02
2023-03-10T04:03:34.363Z,979.04
2023-03-10T04:04:34.331Z,979.04
2023-03-10T04:05:34.281Z,979.03
2023-03-10T04:06:34.279Z,979.04
2023-03-10T04:07:34.259Z,979.07
2023-03-10T04:08:34.276Z,979.09
2023-03-10T04:09:34.248Z,979.03
2023-03-10T04:10:34.238Z,979.02
2023-03-10T04:11:34.218Z,979.01
2023-03-10T04:12:34.206Z,979.03
2023-03-10T04:13:34.186Z,979.06
2023-03-10T04:14:34.179Z,979.02
2023-03-10T04:15:34.176Z,978.99
2023-03-10T04:16:34.156Z,979.03
2023-03-10T04:17:34.124Z,978.98
2023-03-10T04:18:34.117Z,979.01
2023-03-10T04:19:34.111Z,978.96
2023-03-10T04:20:34.206Z,979.01
2023-03-10T04:21:34.089Z,978.99
2023-03-10T04:22:34.118Z,978.98
2023-03-10T04:23:34.054Z,978.95
2023-03-10T04:24:34.072Z,978.91
2023-03-10T04:25:34.033Z,978.98
2023-03-10T04:26:34.020Z,978.89
2023-03-10T04:27:34.000Z,978.90
2023-03-10T04:28:34.021Z,978.86
2023-03-10T04:29:33.979Z,978.88
2023-03-10T04:30:34.002Z,978.87
2023-03-10T04:31:34.075Z,978.89
2023-03-10T04:32:34.005Z,978.87
2023-03-10T04:33:33.917Z,978.86
2023-03-10T04:34:33.931Z,978.91
2023-03-10T04:35:33.957Z,978.90
2023-03-10T04:36:33.925Z,978.88
2023-03-10T04:37:33.871Z,978.88
2023-03-10T04:38:33.872Z,978.91
2023-03-10T04:39:33.865Z,978.95
2023-03-10T04:40:33.853Z,978.93
2023-03-10T04:41:33.832Z,978.91
2023-03-10T04:42:33.956Z,978.95
2023-03-10T04:43:33.784Z,978.91
2023-03-10T04:44:33.776Z,978.87
2023-03-10T04:45:33.784Z,978.84
2023-03-10T04:46:33.860Z,978.84
2023-03-10T04:47:33.733Z,978.83
2023-03-10T04:48:33.722Z,978.81
2023-03-10T04:49:33.709Z,978.82
2023-03-10T04:50:33.713Z,978.85
2023-03-10T04:51:33.683Z,978.78
2023-03-10T04:52:33.681Z,978.80
2023-03-10T04:53:33.652Z,978.83
2023-03-10T04:54:33.662Z,978.82
2023-03-10T04:55:33.660Z,978.81
2023-03-10T04:56:33.612Z,978.83
2023-03-10T04:57:33.601Z,978.83
2023-03-10T04:58:33.583Z,978.83
2023-03-10T04:59:33.595Z,978.88
2023-03-10T05:00:33.605Z,978.89
2023-03-10T05:01:33.615Z,978.82
2023-03-10T05:02:33.543Z,978.88
2023-03-10T05:03:33.526Z,978.86
2023-03-10T05:04:33.520Z,978.87
2023-03-10T05:05:35.782Z,978.89
2023-03-10T05:06:33.497Z,978.86
2023-03-10T05:07:33.476Z,978.89
2023-03-10T05:08:33.455Z,978.87
2023-03-10T05:09:33.444Z,978.84
2023-03-10T05:10:33.445Z,978.85
2023-03-10T05:11:33.407Z,978.81
2023-03-10T05:12:33.405Z,978.81
2023-03-10T05:13:33.391Z,978.84
2023-03-10T05:14:33.397Z,978.79
2023-03-10T05:15:33.389Z,978.77
2023-03-10T05:16:33.441Z,978.76
2023-03-10T05:17:33.331Z,978.79
2023-03-10T05:18:33.335Z,978.76
2023-03-10T05:19:33.314Z,978.79
2023-03-10T05:20:33.309Z,978.74
2023-03-10T05:21:33.558Z,978.76
2023-03-10T05:22:33.286Z,978.77
2023-03-10T05:23:33.254Z,978.77
2023-03-10T05:24:33.246Z,978.77
2023-03-10T05:25:33.238Z,978.80
2023-03-10T05:26:34.908Z,978.77
2023-03-10T05:27:33.201Z,978.80
2023-03-10T05:28:33.189Z,978.75
2023-03-10T05:29:33.179Z,978.70
2023-03-10T05:30:33.214Z,978.65
2023-03-10T05:31:33.253Z,978.62
2023-03-10T05:32:33.158Z,978.65
2023-03-10T05:33:33.126Z,978.64
2023-03-10T05:34:33.128Z,978.61
2023-03-10T05:35:33.165Z,978.63
2023-03-10T05:36:33.114Z,978.63
2023-03-10T05:37:33.075Z,978.64
2023-03-10T05:38:33.078Z,978.68
2023-03-10T05:39:33.070Z,978.71
2023-03-10T05:40:33.065Z,978.76
2023-03-10T05:41:33.025Z,978.71
2023-03-10T05:42:33.040Z,978.79
2023-03-10T05:43:32.987Z,978.73
2023-03-10T05:44:32.989Z,978.66
2023-03-10T05:45:32.960Z,978.72
2023-03-10T05:46:33.016Z,978.71
2023-03-10T05:47:32.938Z,978.73
2023-03-10T05:48:32.938Z,978.68
2023-03-10T05:49:32.930Z,978.72
2023-03-10T05:50:32.895Z,978.66
2023-03-10T05:51:32.892Z,978.66
2023-03-10T05:52:32.878Z,978.68
2023-03-10T05:53:32.859Z,978.71
2023-03-10T05:54:32.845Z,978.70
2023-03-10T05:55:32.874Z,978.76
2023-03-10T05:56:32.852Z,978.79
2023-03-10T05:57:32.836Z,978.77
2023-03-10T05:58:32.806Z,978.79
2023-03-10T05:59:32.853Z,978.81
2023-03-10T06:00:32.771Z,978.78
2023-03-10T06:01:32.835Z,978.75
2023-03-10T06:02:32.753Z,978.75
2023-03-10T06:03:32.884Z,978.78
2023-03-10T06:04:32.712Z,978.75
2023-03-10T06:06:48.451Z,978.74
2023-03-10T06:07:49.449Z,978.75
2023-03-10T06:08:49.446Z,978.80
2023-03-10T06:09:49.407Z,978.85
2023-03-10T06:10:51.124Z,978.81
2023-03-10T06:11:49.394Z,978.84
2023-03-10T06:12:49.367Z,978.83
2023-03-10T06:13:49.355Z,978.79
2023-03-10T06:14:49.360Z,978.79
2023-03-10T06:15:49.329Z,978.81
2023-03-10T06:16:49.417Z,978.87
2023-03-10T06:17:49.314Z,978.83
2023-03-10T06:18:49.312Z,978.82
2023-03-10T06:19:49.307Z,978.81
2023-03-10T06:21:12.532Z,978.85
2023-03-10T06:21:49.307Z,978.90
2023-03-10T06:22:49.246Z,978.91
2023-03-10T06:23:49.227Z,978.85
2023-03-10T06:24:49.214Z,978.89
2023-03-10T06:25:49.214Z,978.86
2023-03-10T06:26:49.214Z,978.94
2023-03-10T06:29:00.290Z,978.88
2023-03-10T06:30:01.380Z,978.91
2023-03-10T06:31:01.266Z,-34.65
2023-03-10T06:32:01.323Z,-34.65
2023-03-10T06:33:01.284Z,-34.65
2023-03-10T06:34:04.257Z,-34.65
2023-03-10T06:35:01.198Z,-34.65
2023-03-10T06:36:01.267Z,-34.65
2023-03-10T06:37:01.247Z,-34.65
2023-03-10T06:38:01.170Z,-34.65
2023-03-10T06:39:01.147Z,-34.65
2023-03-10T06:40:01.123Z,-34.65
2023-03-10T06:41:01.127Z,-34.65
2023-03-10T06:42:01.116Z,-34.65
2023-03-10T06:43:01.113Z,-34.65
2023-03-10T06:44:01.077Z,-34.65
2023-03-10T06:45:01.109Z,-34.65
2023-03-10T06:46:01.117Z,-34.65
2023-03-10T06:47:01.073Z,-34.65
2023-03-10T06:48:01.059Z,-34.65
2023-03-10T06:49:01.024Z,-34.65
2023-03-10T06:50:00.996Z,-34.65
2023-03-10T06:51:00.989Z,-34.65
2023-03-10T06:52:01.000Z,-34.65
2023-03-10T06:53:00.968Z,-34.65
2023-03-10T06:54:00.959Z,-34.65
2023-03-10T06:55:00.948Z,-34.65
2023-03-10T06:56:00.934Z,-34.65
2023-03-10T06:57:00.937Z,-34.65
2023-03-10T06:58:00.891Z,-34.65
2023-03-10T06:59:00.908Z,-34.65
2023-03-10T07:00:00.863Z,-34.65
2023-03-10T07:01:00.895Z,-34.65
2023-03-10T07:02:00.872Z,-34.65
2023-03-10T07:03:00.851Z,-34.65
2023-03-10T07:04:00.819Z,-34.65
2023-03-10T07:05:00.896Z,-34.65
2023-03-10T07:06:00.816Z,-34.65
2023-03-10T07:07:00.799Z,-34.65
2023-03-10T07:08:00.781Z,-34.65
2023-03-10T07:09:00.760Z,-34.65
2023-03-10T07:10:00.734Z,-34.65
2023-03-10T07:11:00.759Z,-34.65
2023-03-10T07:12:00.712Z,-34.65
2023-03-10T07:13:00.760Z,-34.65
2023-03-10T07:14:00.691Z,-34.65
2023-03-10T07:15:00.721Z,-34.65
2023-03-10T07:16:00.656Z,-34.65
2023-03-10T07:17:00.723Z,-34.65
2023-03-10T07:18:00.645Z,-34.65
2023-03-10T07:19:00.670Z,-34.65
2023-03-10T07:20:00.595Z,-34.65
2023-03-10T07:21:00.586Z,-34.65
2023-03-10T07:22:00.578Z,-34.65
2023-03-10T07:23:00.621Z,-34.65
2023-03-10T07:24:00.549Z,-34.65
2023-03-10T07:25:00.535Z,-34.65
2023-03-10T07:26:00.519Z,-34.65
2023-03-10T07:27:00.534Z,-34.65
2023-03-10T07:28:00.507Z,-34.65
2023-03-10T07:29:00.482Z,-34.65
2023-03-10T07:30:00.467Z,-34.65
2023-03-10T07:31:00.543Z,-34.65
2023-03-10T07:32:00.462Z,-34.65
2023-03-10T07:33:00.555Z,-34.65
2023-03-10T07:34:00.437Z,-34.65
2023-03-10T07:35:00.396Z,-34.65
2023-03-10T07:36:00.469Z,-34.65
2023-03-10T07:37:00.412Z,-34.65
2023-03-10T07:38:00.393Z,-34.65
2023-03-10T07:39:00.364Z,-34.65
2023-03-10T07:40:00.341Z,-34.65
2023-03-10T07:41:01.980Z,-34.65
2023-03-10T07:42:00.346Z,-34.65
2023-03-10T07:43:00.312Z,-34.65
2023-03-10T07:44:00.297Z,-34.65
2023-03-10T07:45:00.272Z,-34.65
2023-03-10T07:46:00.399Z,-34.65
2023-03-10T07:47:00.263Z,-34.65
2023-03-10T07:48:00.282Z,-34.65
2023-03-10T07:49:00.211Z,-34.65
2023-03-10T07:50:00.204Z,-34.65
2023-03-10T07:51:00.218Z,-34.65
2023-03-10T07:52:00.176Z,-34.65
2023-03-10T07:53:00.189Z,-34.65
2023-03-10T07:54:00.146Z,-34.65
2023-03-10T07:55:00.157Z,-34.65
2023-03-10T07:56:00.145Z,-34.65
2023-03-10T07:57:00.116Z,-34.65
2023-03-10T07:58:00.127Z,-34.65
2023-03-10T07:59:00.123Z,-34.65
2023-03-10T08:00:00.085Z,-34.65
2023-03-10T08:01:00.194Z,-34.65
2023-03-10T08:02:00.129Z,-34.65
2023-03-10T08:03:00.035Z,-34.65
2023-03-10T08:04:00.201Z,-34.65
2023-03-10T08:05:00.082Z,-34.65
2023-03-10T08:06:00.006Z,-34.65
2023-03-10T08:06:59.997Z,-34.65
2023-03-10T08:07:59.964Z,-34.65
2023-03-10T08:08:59.972Z,-34.65
2023-03-10T08:09:59.948Z,-34.65
2023-03-10T08:10:59.966Z,-34.65
2023-03-10T08:11:59.921Z,-34.65
2023-03-10T08:12:59.905Z,-34.65
2023-03-10T08:13:59.998Z,-34.65
2023-03-10T08:14:59.880Z,-34.65
2023-03-10T08:15:59.885Z,-34.65
2023-03-10T08:16:59.851Z,-34.65
2023-03-10T08:17:59.854Z,-34.65
2023-03-10T08:18:59.853Z,-34.65
2023-03-10T08:19:59.815Z,-34.65
2023-03-10T08:20:59.806Z,-34.65
2023-03-10T08:21:59.781Z,-34.65
2023-03-10T08:22:59.780Z,-34.65
2023-03-10T08:23:59.775Z,-34.65
2023-03-10T08:24:59.745Z,-34.65
2023-03-10T08:25:59.727Z,-34.65
2023-03-10T08:26:59.732Z,-34.65
2023-03-10T08:27:59.737Z,-34.65
2023-03-10T08:28:59.695Z,-34.65
2023-03-10T08:29:59.663Z,-34.65
2023-03-10T08:31:04.659Z,-34.65
2023-03-10T08:31:59.718Z,-34.65
2023-03-10T08:32:59.741Z,-34.65
2023-03-10T08:34:00.807Z,-34.65
2023-03-10T08:34:59.676Z,-34.65
2023-03-10T08:35:59.639Z,-34.65
2023-03-10T08:36:59.589Z,-34.65
2023-03-10T08:37:59.589Z,-34.65
2023-03-10T08:39:30.313Z,979.73
2023-03-10T08:40:31.282Z,979.70
2023-03-10T08:41:31.275Z,979.67
2023-03-10T08:42:31.260Z,979.68
2023-03-10T08:43:31.286Z,979.71
2023-03-10T08:44:31.240Z,979.70
2023-03-10T08:45:31.236Z,979.66
2023-03-10T08:46:31.285Z,979.68
2023-03-10T08:47:32.512Z,979.67
2023-03-10T08:48:31.177Z,979.74
2023-03-10T08:49:31.229Z,979.72
2023-03-10T08:50:31.153Z,979.67
2023-03-10T08:51:31.199Z,979.68
2023-03-10T08:52:31.123Z,979.73
2023-03-10T08:53:31.128Z,979.71
2023-03-10T08:54:32.593Z,979.70
2023-03-10T08:55:31.092Z,979.65
2023-03-10T08:56:31.070Z,979.72
2023-03-10T08:57:31.110Z,979.71
2023-03-10T08:58:31.053Z,979.71
2023-03-10T08:59:31.084Z,979.63
2023-03-10T09:00:31.052Z,979.69
2023-03-10T09:01:31.093Z,979.66
2023-03-10T09:02:30.988Z,979.61
2023-03-10T09:03:31.882Z,979.65
2023-03-10T09:04:30.993Z,979.64
2023-03-10T09:05:30.959Z,979.59
2023-03-10T09:06:30.962Z,979.57
2023-03-10T09:07:30.989Z,979.59
2023-03-10T09:08:30.918Z,979.66
2023-03-10T09:09:30.916Z,979.66
2023-03-10T09:10:30.885Z,979.63
2023-03-10T09:11:30.881Z,979.63
2023-03-10T09:12:35.574Z,979.64
2023-03-10T09:13:30.872Z,979.61
2023-03-10T09:14:30.842Z,979.63
2023-03-10T09:15:30.823Z,979.67
2023-03-10T09:16:30.892Z,979.65
2023-03-10T09:17:30.815Z,979.66
2023-03-10T09:18:30.788Z,979.66
2023-03-10T09:19:30.821Z,979.69
2023-03-10T09:20:30.754Z,979.72
2023-03-10T09:21:33.426Z,979.73
2023-03-10T09:22:30.735Z,979.72
2023-03-10T09:23:30.760Z,979.72
2023-03-10T09:24:30.733Z,979.70
2023-03-10T09:25:30.690Z,979.71
2023-03-10T09:26:30.686Z,979.73
2023-03-10T09:27:30.725Z,979.73
2023-03-10T09:28:30.664Z,979.73
2023-03-10T09:29:42.545Z,979.73
2023-03-10T09:30:30.647Z,979.72
2023-03-10T09:31:30.652Z,979.78
2023-03-10T09:32:30.608Z,979.72
2023-03-10T09:33:30.622Z,979.76
2023-03-10T09:34:30.615Z,979.78
2023-03-10T09:35:30.594Z,979.77
2023-03-10T09:36:30.592Z,979.74
2023-03-10T09:37:30.535Z,979.72
2023-03-10T09:38:30.509Z,979.77
2023-03-10T09:39:30.571Z,979.79
2023-03-10T09:40:30.485Z,979.80
2023-03-10T09:41:32.252Z,979.81
2023-03-10T09:42:37.994Z,979.75
2023-03-10T09:43:30.461Z,979.75
2023-03-10T09:44:30.464Z,979.74
2023-03-10T09:45:30.516Z,979.77
2023-03-10T09:46:52.503Z,979.79
2023-03-10T09:47:30.460Z,979.77
2023-03-10T09:48:30.397Z,979.77
2023-03-10T09:49:30.379Z,979.78
2023-03-10T09:50:30.360Z,979.81
2023-03-10T09:51:30.346Z,979.79
2023-03-10T09:52:30.405Z,979.79
2023-03-10T09:53:30.306Z,979.79
2023-03-10T09:54:30.304Z,979.81
2023-03-10T09:55:30.291Z,979.79
2023-03-10T09:56:30.273Z,979.82
2023-03-10T10:10:50.196Z,979.91
2023-03-10T10:11:49.493Z,979.86
2023-03-10T10:12:49.472Z,979.95
2023-03-10T10:13:49.466Z,979.97
2023-03-10T10:14:57.230Z,980.00
2023-03-10T10:15:51.264Z,979.96
2023-03-10T10:16:49.456Z,979.96
2023-03-10T10:17:55.088Z,979.96
2023-03-10T10:18:49.467Z,979.93
2023-03-10T10:19:49.393Z,979.96
2023-03-10T10:20:49.396Z,979.99
2023-03-10T10:21:49.374Z,979.99
2023-03-10T10:22:49.373Z,979.99
2023-03-10T10:23:49.375Z,979.90
2023-03-10T10:24:49.408Z,979.92
2023-03-10T10:25:50.466Z,979.91
2023-03-10T10:26:49.312Z,979.93
2023-03-10T10:27:49.285Z,979.95
2023-03-10T10:28:50.890Z,979.96
2023-03-10T10:29:49.242Z,979.99
2023-03-10T10:30:51.286Z,980.01
2023-03-10T10:31:49.246Z,979.99
2023-03-10T10:32:49.255Z,980.00
2023-03-10T10:33:49.245Z,979.98
2023-03-10T10:35:10.178Z,980.02
2023-03-10T10:35:49.291Z,980.00
2023-03-10T10:36:49.165Z,979.99
2023-03-10T10:37:49.158Z,979.97
2023-03-10T10:38:49.162Z,979.97
2023-03-10T10:39:49.171Z,979.98
2023-03-10T10:40:49.156Z,980.00
2023-03-10T10:41:49.160Z,979.99
2023-03-10T10:42:49.084Z,979.99
2023-03-10T10:43:49.132Z,979.97
2023-03-10T10:44:49.069Z,979.98
2023-03-10T10:45:49.074Z,979.97
2023-03-10T10:46:49.019Z,979.96
2023-03-10T10:47:49.018Z,979.97
2023-03-10T10:48:49.001Z,980.01
2023-03-10T10:49:49.037Z,979.99
2023-03-10T10:50:48.986Z,980.02
2023-03-10T10:51:48.969Z,980.06
2023-03-10T10:52:48.950Z,980.05
2023-03-10T10:53:48.963Z,980.04
2023-03-10T10:54:48.951Z,980.02
2023-03-10T10:55:48.930Z,980.04
2023-03-10T10:56:48.901Z,980.01
2023-03-10T10:57:48.884Z,980.03
2023-03-10T10:58:48.873Z,980.00
2023-03-10T10:59:48.885Z,980.03
2023-03-10T11:00:48.887Z,979.99
2023-03-10T11:01:48.834Z,980.01
2023-03-10T11:02:48.967Z,979.95
2023-03-10T11:03:48.816Z,979.93
2023-03-10T11:04:48.804Z,980.02
2023-03-10T11:05:48.867Z,979.99
2023-03-10T11:06:48.817Z,979.98
2023-03-10T11:07:48.781Z,979.95
2023-03-10T11:08:48.744Z,979.98
2023-03-10T11:09:48.769Z,979.96
2023-03-10T11:10:48.739Z,979.98
2023-03-10T11:11:48.727Z,979.99
2023-03-10T11:12:48.733Z,979.98
2023-03-10T11:13:48.672Z,979.95
2023-03-10T11:14:48.671Z,980.00
2023-03-10T11:15:48.712Z,979.99
2023-03-10T11:16:48.665Z,979.98
2023-03-10T11:17:48.615Z,980.01
2023-03-10T11:18:51.171Z,980.00
2023-03-10T11:19:48.632Z,979.92
2023-03-10T11:20:48.603Z,979.93
2023-03-10T11:21:50.218Z,979.92
2023-03-10T11:22:48.584Z,979.90
2023-03-10T11:23:48.581Z,979.90
2023-03-10T11:24:51.573Z,979.89
2023-03-10T11:25:48.545Z,979.87
2023-03-10T11:26:51.167Z,979.90
2023-03-10T11:27:48.493Z,979.86
2023-03-10T11:28:48.478Z,979.84
2023-03-10T11:29:48.550Z,979.79
2023-03-10T11:30:48.523Z,979.82
2023-03-10T11:31:48.510Z,979.74
2023-03-10T11:32:48.520Z,979.76
2023-03-10T11:33:48.466Z,979.78
2023-03-10T11:34:48.407Z,979.74
2023-03-10T11:42:59.437Z,979.63
2023-03-10T11:43:58.502Z,979.61
2023-03-10T11:44:58.485Z,979.58
2023-03-10T11:45:58.509Z,979.53
2023-03-10T11:46:58.472Z,979.60
2023-03-10T11:47:58.442Z,979.66
2023-03-10T11:48:58.466Z,979.65
2023-03-10T14:17:16.962Z,978.91
2023-03-10T14:18:17.934Z,978.94
2023-03-10T14:19:17.948Z,978.96
2023-03-10T14:20:17.915Z,978.91
2023-03-10T14:21:17.903Z,978.95
2023-03-10T14:22:17.879Z,978.98
2023-03-10T14:23:17.901Z,978.87
2023-03-10T14:24:17.861Z,978.88
2023-03-10T14:25:17.855Z,978.89
2023-03-10T14:26:17.826Z,978.87
2023-03-10T14:27:17.838Z,978.90
2023-03-10T14:28:19.472Z,978.93
2023-03-10T14:29:17.850Z,978.93
2023-03-10T14:30:17.776Z,978.92
2023-03-10T14:31:18.242Z,978.98
2023-03-10T14:32:17.785Z,978.97
2023-03-10T14:33:17.744Z,978.99
2023-03-10T14:34:17.733Z,978.99
2023-03-10T14:35:17.709Z,978.95
2023-03-10T14:36:17.753Z,978.95
2023-03-10T14:37:17.724Z,978.95
2023-03-10T14:38:17.720Z,978.91
2023-03-10T14:39:17.685Z,978.91
2023-03-10T14:40:17.641Z,978.89
2023-03-10T14:41:17.629Z,978.90
2023-03-10T14:42:17.621Z,978.90
2023-03-10T14:43:17.610Z,978.88
2023-03-10T14:44:17.601Z,978.89
2023-03-10T14:45:17.612Z,978.84
2023-03-10T14:46:17.789Z,978.91
2023-03-10T14:47:17.812Z,978.85
2023-03-10T14:48:17.776Z,978.83
2023-03-10T14:49:17.524Z,978.84
2023-03-10T14:50:17.510Z,978.84
2023-03-10T14:51:28.968Z,978.84
2023-03-10T14:52:17.492Z,978.86
2023-03-10T14:53:17.478Z,978.82
2023-03-10T14:54:17.452Z,978.80
2023-03-10T14:55:17.462Z,978.79
2023-03-10T14:56:17.429Z,978.79
2023-03-10T14:57:17.425Z,978.78
2023-03-10T14:58:17.392Z,978.82
2023-03-10T14:59:16.387Z,978.84
2023-03-10T15:00:17.397Z,978.75
2023-03-10T15:01:17.407Z,978.81
2023-03-10T15:02:17.352Z,978.79
2023-03-10T15:03:17.342Z,978.77
2023-03-10T15:04:17.432Z,978.78
2023-03-10T15:05:17.309Z,978.75
2023-03-10T15:06:17.328Z,978.72
2023-03-10T15:07:17.283Z,978.75
2023-03-10T15:08:17.358Z,978.70
2023-03-10T15:09:17.271Z,978.68
2023-03-10T15:10:17.248Z,978.67
2023-03-10T15:11:24.009Z,978.70
2023-03-10T15:12:17.220Z,978.67
2023-03-10T15:13:17.197Z,978.62
2023-03-10T15:14:17.181Z,978.62
2023-03-10T15:15:17.189Z,978.67
2023-03-10T15:16:17.354Z,978.65
2023-03-10T15:17:17.164Z,978.65
2023-03-10T15:18:17.154Z,978.65
2023-03-10T15:19:17.139Z,978.65
2023-03-10T15:20:17.149Z,978.65
2023-03-10T15:21:17.101Z,978.60
2023-03-10T15:22:17.133Z,978.61
2023-03-10T15:23:19.204Z,978.61
2023-03-10T15:24:17.061Z,978.60
2023-03-10T15:25:17.064Z,978.59
2023-03-10T15:26:17.036Z,978.52
2023-03-10T15:27:17.021Z,978.53
2023-03-10T15:28:17.009Z,978.50
2023-03-10T15:29:17.017Z,978.51
2023-03-10T15:30:17.018Z,978.51
2023-03-10T15:31:17.031Z,978.50
2023-03-10T15:32:16.984Z,978.50
2023-03-10T15:33:16.940Z,978.47
2023-03-10T15:34:18.790Z,978.46
2023-03-10T15:35:16.918Z,978.44
2023-03-10T15:36:16.969Z,978.40
2023-03-10T15:37:16.880Z,978.44
2023-03-10T15:38:16.872Z,978.45
2023-03-10T15:39:30.705Z,978.43
2023-03-10T15:40:16.850Z,978.46
2023-03-10T15:41:16.862Z,978.51
2023-03-10T15:42:16.836Z,978.57
2023-03-10T15:43:16.805Z,978.56
2023-03-10T15:44:16.817Z,978.51
2023-03-10T15:45:16.766Z,978.43
2023-03-10T15:46:16.796Z,978.36
2023-03-10T15:47:16.756Z,978.29
2023-03-10T15:48:16.742Z,978.33
2023-03-10T15:49:16.753Z,978.32
2023-03-10T15:50:16.725Z,978.38
2023-03-10T15:51:16.697Z,978.38
2023-03-10T15:52:16.686Z,978.39
2023-03-10T15:53:16.677Z,978.42
2023-03-10T15:54:16.665Z,978.45
2023-03-10T15:55:16.672Z,978.52
2023-03-10T15:56:16.644Z,978.57
2023-03-10T15:57:16.630Z,978.56
2023-03-10T15:58:16.618Z,978.61
2023-03-10T15:59:16.595Z,978.66
2023-03-10T16:00:16.692Z,978.65
2023-03-10T16:01:16.617Z,978.69
2023-03-10T16:02:16.572Z,978.65
2023-03-10T16:03:18.377Z,978.61
2023-03-10T16:04:16.599Z,978.57
2023-03-10T16:05:16.511Z,978.55
2023-03-10T16:06:16.509Z,978.62
2023-03-10T16:07:16.486Z,978.65
2023-03-10T16:08:16.483Z,978.72
2023-03-10T16:09:16.470Z,978.73
2023-03-10T16:10:16.450Z,978.83